createdAt,value
2023-02-02T00:00:07.095Z,10.64
2023-02-02T00:02:39.029Z,10.65
2023-02-02T00:05:11.284Z,10.64
2023-02-02T00:07:43.171Z,10.66
2023-02-02T00:10:15.217Z,10.66
2023-02-02T00:12:47.115Z,10.63
2023-02-02T00:15:19.071Z,10.61
2023-02-02T00:17:51.016Z,10.62
2023-02-02T00:20:24.122Z,10.63
2023-02-02T00:22:57.170Z,10.63
2023-02-02T00:25:29.157Z,10.62
2023-02-02T00:28:01.111Z,10.50
2023-02-02T00:30:33.071Z,10.63
2023-02-02T00:33:05.091Z,10.68
2023-02-02T00:35:41.115Z,10.68
2023-02-02T00:38:13.099Z,10.69
2023-02-02T00:40:46.322Z,10.67
2023-02-02T00:43:18.283Z,10.74
2023-02-02T00:45:50.615Z,10.73
2023-02-02T00:48:22.807Z,10.72
2023-02-02T00:50:55.080Z,10.73
2023-02-02T00:53:27.150Z,10.75
2023-02-02T00:55:59.117Z,10.72
2023-02-02T00:58:31.034Z,10.75
2023-02-02T01:01:03.023Z,10.73
2023-02-02T01:03:35.105Z,10.78
2023-02-02T01:06:07.117Z,10.79
2023-02-02T01:08:39.409Z,10.66
2023-02-02T01:11:11.327Z,10.80
2023-02-02T01:13:43.965Z,10.81
2023-02-02T01:16:16.098Z,10.82
2023-02-02T01:18:49.310Z,10.78
2023-02-02T01:21:21.607Z,10.75
2023-02-02T01:23:53.543Z,10.80
2023-02-02T01:26:25.628Z,10.77
2023-02-02T01:28:57.848Z,10.79
2023-02-02T01:31:29.905Z,10.77
2023-02-02T01:34:01.996Z,10.79
2023-02-02T01:36:34.136Z,10.78
2023-02-02T01:39:06.386Z,10.76
2023-02-02T01:41:40.957Z,10.77
2023-02-02T01:44:59.838Z,10.70
2023-02-02T01:47:58.594Z,10.72
2023-02-02T01:50:35.419Z,10.76
2023-02-02T01:53:08.533Z,10.75
2023-02-02T01:55:42.732Z,10.78
2023-02-02T01:58:30.321Z,10.74
2023-02-02T02:01:02.349Z,10.77
2023-02-02T02:03:37.636Z,10.80
2023-02-02T02:06:14.728Z,10.70
2023-02-02T02:08:53.468Z,10.63
2023-02-02T02:11:26.239Z,10.78
2023-02-02T02:14:21.876Z,10.81
2023-02-02T02:17:10.666Z,10.76
2023-02-02T02:20:31.584Z,10.74
2023-02-02T02:23:57.164Z,10.69
2023-02-02T02:27:02.256Z,10.67
2023-02-02T02:30:04.680Z,10.71
2023-02-02T02:32:50.688Z,10.73
2023-02-02T02:35:40.239Z,10.69
2023-02-02T02:39:00.586Z,10.68
2023-02-02T02:41:44.787Z,10.64
2023-02-02T02:44:19.453Z,10.73
2023-02-02T02:46:52.963Z,10.64
2023-02-02T02:49:24.975Z,10.65
2023-02-02T02:51:57.198Z,10.74
2023-02-02T02:54:33.978Z,10.73
2023-02-02T02:57:39.608Z,10.68
2023-02-02T03:00:46.345Z,10.67
2023-02-02T03:03:37.319Z,10.64
2023-02-02T03:06:26.789Z,10.64
2023-02-02T03:09:13.175Z,10.57
2023-02-02T03:11:46.558Z,10.68
2023-02-02T03:14:18.780Z,10.69
2023-02-02T03:16:53.788Z,10.66
2023-02-02T03:19:26.043Z,10.66
2023-02-02T03:21:57.996Z,10.65
2023-02-02T03:24:30.334Z,10.64
2023-02-02T03:27:02.325Z,10.63
2023-02-02T03:29:34.486Z,10.65
2023-02-02T03:32:06.490Z,10.69
2023-02-02T03:34:38.453Z,10.66
2023-02-02T03:37:10.484Z,10.62
2023-02-02T03:39:42.383Z,10.61
2023-02-02T03:42:14.336Z,10.55
2023-02-02T03:44:46.216Z,10.60
2023-02-02T03:47:18.219Z,10.62
2023-02-02T03:49:50.246Z,10.62
2023-02-02T03:52:22.215Z,10.62
2023-02-02T03:54:54.409Z,10.55
2023-02-02T03:57:26.494Z,10.61
2023-02-02T03:59:58.479Z,10.61
2023-02-02T04:02:30.477Z,10.62
2023-02-02T04:05:02.437Z,10.59
2023-02-02T04:07:34.491Z,10.56
2023-02-02T04:10:06.852Z,10.62
2023-02-02T04:12:38.898Z,10.66
2023-02-02T04:15:11.527Z,10.62
2023-02-02T04:17:43.720Z,10.66
2023-02-02T04:20:15.737Z,10.68
2023-02-02T04:22:47.735Z,10.60
2023-02-02T04:25:19.667Z,10.64
2023-02-02T04:27:51.894Z,10.66
2023-02-02T04:30:23.831Z,10.57
2023-02-02T04:32:56.238Z,10.64
2023-02-02T04:35:28.122Z,10.64
2023-02-02T04:38:00.127Z,10.66
2023-02-02T04:40:32.116Z,10.61
2023-02-02T04:43:04.038Z,10.62
2023-02-02T04:45:36.144Z,10.63
2023-02-02T04:48:08.328Z,10.60
2023-02-02T04:50:40.339Z,10.63
2023-02-02T04:53:12.245Z,10.61
2023-02-02T04:55:44.152Z,10.51
2023-02-02T04:58:16.033Z,10.53
2023-02-02T05:00:47.986Z,10.55
2023-02-02T05:03:19.921Z,10.57
2023-02-02T05:05:51.964Z,10.58
2023-02-02T05:08:23.902Z,10.59
2023-02-02T05:10:55.988Z,10.54
2023-02-02T05:13:27.928Z,10.58
2023-02-02T05:16:00.460Z,10.56
2023-02-02T05:18:32.673Z,10.55
2023-02-02T05:21:05.129Z,10.55
2023-02-02T05:23:37.112Z,10.57
2023-02-02T05:26:16.162Z,10.54
2023-02-02T05:28:48.888Z,10.60
2023-02-02T05:31:22.147Z,10.59
2023-02-02T05:33:54.260Z,10.53
2023-02-02T05:36:26.445Z,10.58
2023-02-02T05:38:58.593Z,10.60
2023-02-02T05:41:30.499Z,10.63
2023-02-02T05:44:04.214Z,10.62
2023-02-02T05:46:36.231Z,10.63
2023-02-02T05:49:13.687Z,10.64
2023-02-02T05:51:50.033Z,10.61
2023-02-02T05:54:22.029Z,10.58
2023-02-02T05:56:55.874Z,10.61
2023-02-02T05:59:29.244Z,10.59
2023-02-02T06:02:01.180Z,10.58
2023-02-02T06:04:33.128Z,10.59
2023-02-02T06:07:05.437Z,10.61
2023-02-02T06:09:37.442Z,10.63
2023-02-02T06:12:09.857Z,10.65
2023-02-02T06:14:41.795Z,10.64
2023-02-02T06:17:13.775Z,10.66
2023-02-02T06:19:45.833Z,10.62
2023-02-02T06:22:17.753Z,10.62
2023-02-02T06:24:49.725Z,10.56
2023-02-02T06:27:21.736Z,10.66
2023-02-02T06:29:53.697Z,10.61
2023-02-02T06:32:25.767Z,10.67
2023-02-02T06:34:57.758Z,10.68
2023-02-02T06:37:30.808Z,10.71
2023-02-02T06:40:02.857Z,10.66
2023-02-02T06:42:34.939Z,10.64
2023-02-02T06:45:07.808Z,10.58
2023-02-02T06:47:39.750Z,10.60
2023-02-02T06:50:12.394Z,10.59
2023-02-02T06:52:52.396Z,10.57
2023-02-02T06:55:24.578Z,10.60
2023-02-02T06:58:01.673Z,10.61
2023-02-02T07:00:37.000Z,10.62
2023-02-02T07:03:08.909Z,10.61
2023-02-02T07:05:40.941Z,10.58
2023-02-02T07:08:12.902Z,10.60
2023-02-02T07:11:12.800Z,10.54
2023-02-02T07:13:36.801Z,10.55
2023-02-02T07:16:13.188Z,10.56
2023-02-02T07:18:47.587Z,10.52
2023-02-02T07:21:23.643Z,10.53
2023-02-02T07:23:55.577Z,10.53
2023-02-02T07:26:27.761Z,10.52
2023-02-02T07:28:59.720Z,10.46
2023-02-02T07:31:34.094Z,10.46
2023-02-02T07:34:07.652Z,10.51
2023-02-02T07:36:39.579Z,10.48
2023-02-02T07:39:12.174Z,10.45
2023-02-02T07:41:44.115Z,10.46
2023-02-02T07:44:16.698Z,10.26
2023-02-02T07:46:49.271Z,10.44
2023-02-02T07:49:21.322Z,10.48
2023-02-02T07:51:53.311Z,10.35
2023-02-02T07:54:25.529Z,10.43
2023-02-02T07:56:57.638Z,10.41
2023-02-02T07:59:32.168Z,10.42
2023-02-02T08:02:04.434Z,10.43
2023-02-02T08:04:36.422Z,10.42
2023-02-02T08:07:08.625Z,10.42
2023-02-02T08:09:46.857Z,10.43
2023-02-02T08:12:21.263Z,10.39
2023-02-02T08:14:53.291Z,10.44
2023-02-02T08:17:25.352Z,10.44
2023-02-02T08:19:57.342Z,10.37
2023-02-02T08:22:29.256Z,10.46
2023-02-02T08:25:01.186Z,10.44
2023-02-02T08:27:33.185Z,10.47
2023-02-02T08:30:05.816Z,10.49
2023-02-02T08:32:37.715Z,10.50
2023-02-02T08:35:09.803Z,10.50
2023-02-02T08:37:41.779Z,10.48
2023-02-02T08:40:13.836Z,10.50
2023-02-02T08:42:47.580Z,10.53
2023-02-02T08:46:02.361Z,10.58
2023-02-02T08:48:12.975Z,10.53
2023-02-02T08:50:44.939Z,10.57
2023-02-02T08:53:16.884Z,10.61
2023-02-02T08:55:57.327Z,10.65
2023-02-02T08:58:29.567Z,10.65
2023-02-02T09:01:14.314Z,10.62
2023-02-02T09:03:46.791Z,10.65
2023-02-02T09:06:21.237Z,10.69
2023-02-02T09:08:53.319Z,10.69
2023-02-02T09:11:25.711Z,10.71
2023-02-02T09:14:01.046Z,10.73
2023-02-02T09:16:35.160Z,10.75
2023-02-02T09:19:07.546Z,10.76
2023-02-02T09:21:40.581Z,10.75
2023-02-02T09:24:14.102Z,10.77
2023-02-02T09:26:46.215Z,10.81
2023-02-02T09:29:18.375Z,10.87
2023-02-02T09:31:50.617Z,10.90
2023-02-02T09:34:22.654Z,10.91
2023-02-02T09:36:54.590Z,10.92
2023-02-02T09:39:26.788Z,10.92
2023-02-02T09:42:21.083Z,10.89
2023-02-02T09:45:00.741Z,10.91
2023-02-02T09:47:55.489Z,10.93
2023-02-02T09:50:49.497Z,10.87
2023-02-02T09:53:54.690Z,10.95
2023-02-02T09:56:37.200Z,11.02
2023-02-02T09:59:22.858Z,10.99
2023-02-02T10:02:05.344Z,11.04
2023-02-02T10:04:41.918Z,11.09
2023-02-02T10:07:31.938Z,11.03
2023-02-02T10:10:21.089Z,11.03
2023-02-02T10:13:16.212Z,11.04
2023-02-02T10:16:22.408Z,11.03
2023-02-02T10:19:11.251Z,11.08
2023-02-02T10:22:12.972Z,11.05
2023-02-02T10:24:45.784Z,11.01
2023-02-02T10:27:41.018Z,10.98
2023-02-02T10:30:20.769Z,11.05
2023-02-02T10:33:10.134Z,10.92
2023-02-02T10:36:19.904Z,11.05
2023-02-02T10:39:21.447Z,11.09
2023-02-02T10:42:05.118Z,11.11
2023-02-02T10:45:20.125Z,11.10
2023-02-02T10:47:52.285Z,11.15
2023-02-02T10:50:24.848Z,11.20
2023-02-02T10:53:10.592Z,11.22
2023-02-02T10:55:56.478Z,11.24
2023-02-02T10:58:55.537Z,11.20
2023-02-02T11:01:27.597Z,11.28
2023-02-02T11:04:18.378Z,11.28
2023-02-02T11:06:50.526Z,11.25
2023-02-02T11:09:30.691Z,11.24
2023-02-02T11:12:23.289Z,11.25
2023-02-02T11:15:29.689Z,11.28
2023-02-02T11:18:30.286Z,11.27
2023-02-02T11:21:02.270Z,11.33
2023-02-02T11:23:34.256Z,11.36
2023-02-02T11:26:07.393Z,11.31
2023-02-02T11:28:40.170Z,11.36
2023-02-02T11:31:12.944Z,11.38
2023-02-02T11:33:46.126Z,11.30
2023-02-02T11:36:22.188Z,11.34
2023-02-02T11:39:30.213Z,11.32
2023-02-02T11:42:18.322Z,11.25
2023-02-02T11:45:00.305Z,11.32
2023-02-02T11:47:34.139Z,11.40
2023-02-02T11:50:06.721Z,11.22
2023-02-02T11:52:40.444Z,11.46
2023-02-02T11:55:27.810Z,11.38
2023-02-02T11:58:42.320Z,11.46
2023-02-02T12:01:32.932Z,11.45
2023-02-02T12:04:13.571Z,11.46
2023-02-02T12:06:45.750Z,11.46
2023-02-02T12:09:23.652Z,11.49
2023-02-02T12:12:20.188Z,11.52
2023-02-02T12:15:16.737Z,11.51
2023-02-02T12:17:53.478Z,11.47
2023-02-02T12:21:03.256Z,11.47
2023-02-02T12:24:06.382Z,11.51
2023-02-02T12:26:47.831Z,11.51
2023-02-02T12:29:31.657Z,11.54
2023-02-02T12:32:51.764Z,11.50
2023-02-02T12:35:53.990Z,11.53
2023-02-02T12:39:07.248Z,11.51
2023-02-02T12:42:04.157Z,11.58
2023-02-02T12:45:09.536Z,11.57
2023-02-02T12:48:15.433Z,11.57
2023-02-02T12:51:36.537Z,11.55
2023-02-02T12:54:57.411Z,11.57
2023-02-02T12:58:10.322Z,11.42
2023-02-02T13:01:46.188Z,11.57
2023-02-02T13:04:44.990Z,11.62
2023-02-02T13:07:47.722Z,11.50
2023-02-02T13:10:31.771Z,11.53
2023-02-02T13:13:20.329Z,11.62
2023-02-02T13:16:02.934Z,11.62
2023-02-02T13:19:05.873Z,11.58
2023-02-02T13:21:41.531Z,11.63
2023-02-02T13:24:24.979Z,11.59
2023-02-02T13:27:01.612Z,11.61
2023-02-02T13:30:00.148Z,11.56
2023-02-02T13:32:39.161Z,11.54
2023-02-02T13:35:31.367Z,11.55
2023-02-02T13:38:24.943Z,11.52
2023-02-02T13:41:01.603Z,11.51
2023-02-02T13:43:58.329Z,11.49
2023-02-02T13:47:01.726Z,11.44
2023-02-02T13:49:46.041Z,11.31
2023-02-02T13:52:54.812Z,11.37
2023-02-02T13:55:55.016Z,11.37
2023-02-02T13:58:49.388Z,11.40
2023-02-02T14:01:23.885Z,11.45
2023-02-02T14:03:57.771Z,11.51
2023-02-02T14:06:56.763Z,11.48
2023-02-02T14:09:34.303Z,11.46
2023-02-02T14:12:11.282Z,11.52
2023-02-02T14:14:47.160Z,11.50
2023-02-02T14:17:21.780Z,11.51
2023-02-02T14:19:58.985Z,11.48
2023-02-02T14:22:50.946Z,11.46
2023-02-02T14:25:36.927Z,11.44
2023-02-02T14:28:43.689Z,11.34
2023-02-02T14:31:29.781Z,11.28
2023-02-02T14:34:41.519Z,11.19
2023-02-02T14:37:28.325Z,11.24
2023-02-02T14:40:38.685Z,11.19
2023-02-02T14:43:46.294Z,11.11
2023-02-02T14:46:35.049Z,11.12
2023-02-02T14:49:14.861Z,11.10
2023-02-02T14:51:59.339Z,11.01
2023-02-02T14:54:38.219Z,11.05
2023-02-02T14:57:26.888Z,11.05
2023-02-02T15:00:01.300Z,11.07
2023-02-02T15:02:37.624Z,11.06
2023-02-02T15:05:28.441Z,10.99
2023-02-02T15:08:39.203Z,10.91
2023-02-02T15:11:29.659Z,10.96
2023-02-02T15:14:13.426Z,10.94
2023-02-02T15:16:46.522Z,10.97
2023-02-02T15:19:33.126Z,10.95
2023-02-02T15:22:24.560Z,10.98
2023-02-02T15:25:00.556Z,10.94
2023-02-02T15:27:32.711Z,10.94
2023-02-02T15:30:12.713Z,10.93
2023-02-02T15:32:46.511Z,10.92
2023-02-02T15:35:25.001Z,10.90
2023-02-02T15:38:06.504Z,10.88
2023-02-02T15:40:38.780Z,10.89
2023-02-02T15:43:13.622Z,10.91
2023-02-02T15:45:50.316Z,10.92
2023-02-02T15:48:30.234Z,10.93
2023-02-02T15:51:17.532Z,10.88
2023-02-02T15:53:51.975Z,10.94
2023-02-02T15:56:24.294Z,10.92
2023-02-02T15:58:59.769Z,10.91
2023-02-02T16:01:47.646Z,10.92
2023-02-02T16:04:31.587Z,10.91
2023-02-02T16:07:10.627Z,10.85
2023-02-02T16:09:42.932Z,10.87
2023-02-02T16:12:22.031Z,10.85
2023-02-02T16:14:55.631Z,10.74
2023-02-02T16:17:31.311Z,10.87
2023-02-02T16:20:17.720Z,10.79
2023-02-02T16:22:51.365Z,10.81
2023-02-02T16:25:25.015Z,10.80
2023-02-02T16:28:00.933Z,10.81
2023-02-02T16:30:38.682Z,10.96
2023-02-02T16:33:39.169Z,10.83
2023-02-02T16:36:26.312Z,10.80
2023-02-02T16:39:01.097Z,10.80
2023-02-02T16:41:37.127Z,10.81
2023-02-02T16:44:29.668Z,10.78
2023-02-02T16:47:02.356Z,10.83
2023-02-02T16:49:35.622Z,10.87
2023-02-02T16:52:10.453Z,10.90
2023-02-02T16:54:51.818Z,11.08
2023-02-02T16:57:31.134Z,10.92
2023-02-02T17:00:09.222Z,10.95
2023-02-02T17:02:48.235Z,10.93
2023-02-02T17:05:34.313Z,10.89
2023-02-02T17:08:07.943Z,10.95
2023-02-02T17:10:43.348Z,10.87
2023-02-02T17:13:39.195Z,10.93
2023-02-02T17:16:17.367Z,10.93
2023-02-02T17:18:50.994Z,10.94
2023-02-02T17:21:25.864Z,10.96
2023-02-02T17:23:57.784Z,10.95
2023-02-02T17:26:30.362Z,10.99
2023-02-02T17:29:05.077Z,11.03
2023-02-02T17:31:37.222Z,11.05
2023-02-02T17:34:17.446Z,11.07
2023-02-02T17:36:49.421Z,11.06
2023-02-02T17:39:21.431Z,11.08
2023-02-02T17:41:53.837Z,10.89
2023-02-02T17:44:25.958Z,11.10
2023-02-02T17:46:57.952Z,11.44
2023-02-02T17:49:29.848Z,11.23
2023-02-02T17:52:01.806Z,11.15
2023-02-02T17:54:33.823Z,11.17
2023-02-02T17:57:05.753Z,11.20
2023-02-02T17:59:37.664Z,11.20
2023-02-02T18:02:16.523Z,11.20
2023-02-02T18:04:48.543Z,11.18
2023-02-02T18:07:20.424Z,11.22
2023-02-02T18:09:52.340Z,11.26
2023-02-02T18:12:24.427Z,11.25
2023-02-02T18:14:56.373Z,11.24
2023-02-02T18:17:28.432Z,11.19
2023-02-02T18:20:00.738Z,11.20
2023-02-02T18:22:32.751Z,11.28
2023-02-02T18:25:06.175Z,11.27
2023-02-02T18:27:38.369Z,11.26
2023-02-02T18:30:11.446Z,11.31
2023-02-02T18:32:43.463Z,11.31
2023-02-02T18:35:15.428Z,11.30
2023-02-02T18:37:49.206Z,11.37
2023-02-02T18:40:21.219Z,11.39
2023-02-02T18:42:53.167Z,11.41
2023-02-02T18:45:25.505Z,11.44
2023-02-02T18:47:57.638Z,11.45
2023-02-02T18:50:29.576Z,11.47
2023-02-02T18:53:01.670Z,11.49
2023-02-02T18:55:33.588Z,11.48
2023-02-02T18:58:07.956Z,11.44
2023-02-02T19:00:43.052Z,11.42
2023-02-02T19:03:15.143Z,11.40
2023-02-02T19:06:05.797Z,11.37
2023-02-02T19:08:37.753Z,11.34
2023-02-02T19:11:18.504Z,11.28
2023-02-02T19:13:50.715Z,11.35
2023-02-02T19:16:30.024Z,11.33
2023-02-02T19:19:33.820Z,11.30
2023-02-02T19:22:22.706Z,11.33
2023-02-02T19:24:54.753Z,11.36
2023-02-02T19:27:27.315Z,11.34
2023-02-02T19:30:05.869Z,11.31
2023-02-02T19:32:38.490Z,11.32
2023-02-02T19:35:21.901Z,11.31
2023-02-02T19:38:01.832Z,11.32
2023-02-02T19:40:34.361Z,11.34
2023-02-02T19:43:29.072Z,11.29
2023-02-02T19:46:01.050Z,11.30
2023-02-02T19:48:35.411Z,11.31
2023-02-02T19:51:37.536Z,11.14
2023-02-02T19:54:42.493Z,11.24
2023-02-02T19:57:33.022Z,11.25
2023-02-02T20:00:29.149Z,11.22
2023-02-02T20:03:10.401Z,11.25
2023-02-02T20:05:47.878Z,11.23
2023-02-02T20:08:41.611Z,11.22
2023-02-02T20:11:32.968Z,11.22
2023-02-02T20:14:22.914Z,11.19
2023-02-02T20:17:06.757Z,11.09
2023-02-02T20:19:42.577Z,11.23
2023-02-02T20:22:33.531Z,11.17
2023-02-02T20:25:09.151Z,11.17
2023-02-02T20:27:41.152Z,11.16
2023-02-02T20:30:24.226Z,11.14
2023-02-02T20:33:00.306Z,11.15
2023-02-02T20:35:41.746Z,11.10
2023-02-02T20:38:30.071Z,11.08
2023-02-02T20:41:04.519Z,11.12
2023-02-02T20:43:36.447Z,11.14
2023-02-02T20:46:08.527Z,11.16
2023-02-02T20:48:40.935Z,11.14
2023-02-02T20:51:13.104Z,11.16
2023-02-02T20:53:45.213Z,11.17
2023-02-02T20:56:17.091Z,11.13
2023-02-02T20:58:49.181Z,11.13
2023-02-02T21:01:23.420Z,11.07
2023-02-02T21:03:55.393Z,11.13
2023-02-02T21:06:28.813Z,11.13
2023-02-02T21:09:01.023Z,11.13
2023-02-02T21:11:33.569Z,11.16
2023-02-02T21:14:06.006Z,11.14
2023-02-02T21:16:38.184Z,11.13
2023-02-02T21:19:10.706Z,11.12
2023-02-02T21:21:42.729Z,11.06
2023-02-02T21:24:14.645Z,11.09
2023-02-02T21:26:48.853Z,11.09
2023-02-02T21:29:23.795Z,11.11
2023-02-02T21:31:59.406Z,11.10
2023-02-02T21:34:32.298Z,11.12
2023-02-02T21:37:10.428Z,11.16
2023-02-02T21:39:51.809Z,11.17
2023-02-02T21:42:26.872Z,11.16
2023-02-02T21:45:25.475Z,11.16
2023-02-02T21:48:35.060Z,11.18
2023-02-02T21:51:24.825Z,11.16
2023-02-02T21:53:58.067Z,11.22
2023-02-02T21:56:39.805Z,11.21
2023-02-02T21:59:17.043Z,11.22
2023-02-02T22:01:52.448Z,11.26
2023-02-02T22:04:28.819Z,11.22
2023-02-02T22:07:15.800Z,11.28
2023-02-02T22:09:55.291Z,11.30
2023-02-02T22:12:28.560Z,11.31
2023-02-02T22:15:01.773Z,11.33
2023-02-02T22:17:41.874Z,11.34
2023-02-02T22:20:17.353Z,11.34
2023-02-02T22:22:51.747Z,11.34
2023-02-02T22:25:35.839Z,11.29
2023-02-02T22:28:33.111Z,11.33
2023-02-02T22:31:05.260Z,11.33
2023-02-02T22:33:37.353Z,11.31
2023-02-02T22:36:09.350Z,11.28
2023-02-02T22:38:41.275Z,11.27
2023-02-02T22:41:13.310Z,11.26
2023-02-02T22:43:45.221Z,11.29
2023-02-02T22:46:17.233Z,11.25
2023-02-02T22:48:49.223Z,11.30
2023-02-02T22:51:21.107Z,11.33
2023-02-02T22:53:53.024Z,11.33
2023-02-02T22:56:25.146Z,11.34
2023-02-02T22:58:57.130Z,11.28
2023-02-02T23:01:29.028Z,11.34
2023-02-02T23:04:01.010Z,11.37
2023-02-02T23:06:32.969Z,11.37
2023-02-02T23:09:04.897Z,11.35
2023-02-02T23:11:36.818Z,11.36
2023-02-02T23:14:08.835Z,11.35
2023-02-02T23:16:40.783Z,11.37
2023-02-02T23:19:12.745Z,11.39
2023-02-02T23:21:44.664Z,11.41
2023-02-02T23:24:16.600Z,11.36
2023-02-02T23:26:48.555Z,11.38
2023-02-02T23:29:20.484Z,11.39
2023-02-02T23:31:52.525Z,11.36
2023-02-02T23:34:24.523Z,11.39
2023-02-02T23:36:56.451Z,11.38
2023-02-02T23:39:28.370Z,11.37
2023-02-02T23:42:00.348Z,11.35
2023-02-02T23:44:32.250Z,11.40
2023-02-02T23:47:05.142Z,11.39
2023-02-02T23:49:38.218Z,11.38
2023-02-02T23:52:10.433Z,11.39
2023-02-02T23:54:43.374Z,11.43
2023-02-02T23:57:15.506Z,11.42
2023-02-02T23:59:47.422Z,11.40
